createdAt,value
2022-09-10T00:00:54.473Z,93716.63
2022-09-10T00:01:51.067Z,93714.69
2022-09-10T00:02:47.706Z,93710.84
2022-09-10T00:03:44.567Z,93710.50
2022-09-10T00:04:41.165Z,93714.75
2022-09-10T00:05:42.787Z,93697.84
2022-09-10T00:06:39.699Z,93702.81
2022-09-10T00:07:36.313Z,93709.81
2022-09-10T00:08:34.407Z,93704.03
2022-09-10T00:09:31.028Z,93703.31
2022-09-10T00:10:27.625Z,93706.78
2022-09-10T00:11:32.013Z,93698.28
2022-09-10T00:12:28.727Z,93709.06
2022-09-10T00:13:25.294Z,93704.38
2022-09-10T00:14:23.859Z,93714.31
2022-09-10T00:15:20.540Z,93686.25
2022-09-10T00:16:22.175Z,93693.94
2022-09-10T00:17:19.057Z,93709.72
2022-09-10T00:18:18.033Z,93709.63
2022-09-10T00:19:15.488Z,93718.13
2022-09-10T00:20:12.277Z,93698.81
2022-09-10T00:21:12.780Z,93710.84
2022-09-10T00:22:10.492Z,93719.53
2022-09-10T00:23:07.150Z,93723.88
2022-09-10T00:24:05.241Z,93718.06
2022-09-10T00:25:06.228Z,93720.50
2022-09-10T00:26:22.546Z,93724.25
2022-09-10T00:27:19.273Z,93730.13
2022-09-10T00:28:16.319Z,93720.66
2022-09-10T00:29:15.890Z,93720.84
2022-09-10T00:30:12.993Z,93705.41
2022-09-10T00:31:10.583Z,93728.22
2022-09-10T00:32:07.198Z,93720.50
2022-09-10T00:33:03.825Z,93693.50
2022-09-10T00:34:02.110Z,93718.06
2022-09-10T00:35:01.293Z,93710.81
2022-09-10T00:35:57.901Z,93722.03
2022-09-10T00:36:54.585Z,93725.56
2022-09-10T00:37:51.435Z,93724.47
2022-09-10T00:38:49.129Z,93719.47
2022-09-10T00:39:45.754Z,93721.75
2022-09-10T00:40:42.331Z,93723.66
2022-09-10T00:41:40.777Z,93722.47
2022-09-10T00:42:37.338Z,93729.38
2022-09-10T00:43:58.634Z,93729.75
2022-09-10T00:45:01.300Z,93731.69
2022-09-10T00:45:58.103Z,93720.53
2022-09-10T00:46:56.272Z,93730.22
2022-09-10T00:47:56.393Z,93721.38
2022-09-10T00:48:56.815Z,93725.22
2022-09-10T00:49:58.787Z,93694.50
2022-09-10T00:50:56.202Z,93719.81
2022-09-10T00:51:54.311Z,93719.47
2022-09-10T00:52:53.476Z,93717.56
2022-09-10T00:53:51.005Z,93722.09
2022-09-10T00:54:48.354Z,93714.78
2022-09-10T00:55:50.460Z,93727.50
2022-09-10T00:56:48.079Z,93728.38
2022-09-10T00:57:47.684Z,93720.25
2022-09-10T00:58:46.220Z,93714.16
2022-09-10T00:59:48.620Z,93713.38
2022-09-10T01:00:45.896Z,93713.75
2022-09-10T01:01:43.258Z,93717.97
2022-09-10T01:02:40.163Z,93712.63
2022-09-10T01:03:38.714Z,93721.91
2022-09-10T01:04:35.882Z,93697.63
2022-09-10T01:05:34.446Z,93712.66
2022-09-10T01:06:31.487Z,93703.41
2022-09-10T01:07:30.281Z,93709.19
2022-09-10T01:08:27.528Z,93708.06
2022-09-10T01:09:25.377Z,93711.53
2022-09-10T01:10:29.605Z,93705.28
2022-09-10T01:11:49.177Z,93698.25
2022-09-10T01:13:30.141Z,93708.59
2022-09-10T01:14:38.800Z,93696.88
2022-09-10T01:16:03.133Z,93690.28
2022-09-10T01:17:33.708Z,93687.50
2022-09-10T01:18:45.060Z,93683.28
2022-09-10T01:19:45.933Z,93690.03
2022-09-10T01:20:56.632Z,93688.31
2022-09-10T01:22:21.962Z,93692.31
2022-09-10T01:23:33.782Z,93683.72
2022-09-10T01:24:51.364Z,93678.31
2022-09-10T01:26:20.890Z,93690.72
2022-09-10T01:27:42.621Z,93686.31
2022-09-10T01:29:02.177Z,93682.25
2022-09-10T01:30:03.540Z,93688.81
2022-09-10T01:31:10.789Z,93692.75
2022-09-10T01:32:21.145Z,93691.41
2022-09-10T01:33:34.164Z,93684.22
2022-09-10T01:34:47.354Z,93682.50
2022-09-10T01:35:52.956Z,93679.25
2022-09-10T01:36:54.779Z,93677.50
2022-09-10T01:37:59.323Z,93664.94
2022-09-10T01:38:56.150Z,93676.84
2022-09-10T01:39:53.712Z,93671.16
2022-09-10T01:40:52.788Z,93674.63
2022-09-10T01:41:50.807Z,93675.38
2022-09-10T01:42:49.760Z,93669.91
2022-09-10T01:43:46.371Z,93663.75
2022-09-10T01:44:51.456Z,93672.19
2022-09-10T01:45:54.825Z,93667.94
2022-09-10T01:47:04.631Z,93667.16
2022-09-10T01:48:24.132Z,93674.50
2022-09-10T01:49:36.833Z,93675.28
2022-09-10T01:50:57.773Z,93676.00
2022-09-10T01:52:00.232Z,93677.53
2022-09-10T01:53:10.230Z,93678.22
2022-09-10T01:54:39.836Z,93680.31
2022-09-10T01:55:42.390Z,93677.47
2022-09-10T01:57:14.273Z,93687.50
2022-09-10T01:58:13.613Z,93681.00
2022-09-10T01:59:23.989Z,93687.19
2022-09-10T02:00:24.232Z,93680.28
2022-09-10T02:01:27.986Z,93683.72
2022-09-10T02:02:51.177Z,93690.66
2022-09-10T02:03:52.169Z,93687.50
2022-09-10T02:04:51.626Z,93684.38
2022-09-10T02:05:52.392Z,93694.81
2022-09-10T02:06:51.555Z,93695.59
2022-09-10T02:07:52.951Z,93695.94
2022-09-10T02:08:53.537Z,93693.69
2022-09-10T02:09:52.255Z,93676.06
2022-09-10T02:11:06.458Z,93700.34
2022-09-10T02:12:03.349Z,93684.50
2022-09-10T02:12:59.967Z,93694.16
2022-09-10T02:13:58.364Z,93698.44
2022-09-10T02:14:57.534Z,93706.19
2022-09-10T02:15:54.367Z,93681.19
2022-09-10T02:16:55.189Z,93701.88
2022-09-10T02:17:53.691Z,93700.25
2022-09-10T02:18:50.576Z,93703.78
2022-09-10T02:19:51.428Z,93702.66
2022-09-10T02:20:50.735Z,93706.53
2022-09-10T02:21:47.388Z,93706.03
2022-09-10T02:22:50.055Z,93702.38
2022-09-10T02:23:50.886Z,93711.41
2022-09-10T02:24:47.460Z,93705.53
2022-09-10T02:25:44.707Z,93703.50
2022-09-10T02:26:44.350Z,93709.00
2022-09-10T02:27:43.585Z,93712.56
2022-09-10T02:28:40.998Z,93712.28
2022-09-10T02:29:39.119Z,93710.25
2022-09-10T02:30:35.743Z,93709.22
2022-09-10T02:31:32.733Z,93701.63
2022-09-10T02:32:29.375Z,93697.41
2022-09-10T02:33:26.040Z,93700.88
2022-09-10T02:34:23.133Z,93694.75
2022-09-10T02:35:20.831Z,93701.28
2022-09-10T02:36:17.641Z,93699.41
2022-09-10T02:37:16.055Z,93698.63
2022-09-10T02:38:12.623Z,93687.88
2022-09-10T02:39:09.237Z,93690.94
2022-09-10T02:40:06.572Z,93700.16
2022-09-10T02:41:03.189Z,93702.81
2022-09-10T02:42:00.098Z,93706.66
2022-09-10T02:42:56.658Z,93701.22
2022-09-10T02:43:53.311Z,93708.13
2022-09-10T02:44:49.906Z,93708.13
2022-09-10T02:45:46.545Z,93701.19
2022-09-10T02:46:44.272Z,93691.63
2022-09-10T02:47:41.086Z,93709.69
2022-09-10T02:48:38.761Z,93705.84
2022-09-10T02:49:35.392Z,93708.09
2022-09-10T02:50:33.688Z,93702.31
2022-09-10T02:51:30.548Z,93705.78
2022-09-10T02:52:27.144Z,93708.81
2022-09-10T02:53:23.822Z,93705.69
2022-09-10T02:54:20.426Z,93685.69
2022-09-10T02:55:18.076Z,93695.66
2022-09-10T02:56:15.381Z,93694.53
2022-09-10T02:57:12.314Z,93701.09
2022-09-10T02:58:08.919Z,93697.63
2022-09-10T02:59:06.387Z,93701.84
2022-09-10T03:00:04.344Z,93686.03
2022-09-10T03:01:15.956Z,93684.94
2022-09-10T03:02:12.895Z,93702.25
2022-09-10T03:03:09.512Z,93701.47
2022-09-10T03:04:06.234Z,93694.16
2022-09-10T03:05:07.212Z,93696.44
2022-09-10T03:06:04.553Z,93688.75
2022-09-10T03:07:01.480Z,93696.81
2022-09-10T03:07:58.372Z,93697.97
2022-09-10T03:08:58.067Z,93702.63
2022-09-10T03:09:54.615Z,93701.03
2022-09-10T03:10:51.178Z,93704.50
2022-09-10T03:11:48.037Z,93706.78
2022-09-10T03:12:45.603Z,93703.72
2022-09-10T03:13:44.079Z,93696.84
2022-09-10T03:14:40.631Z,93705.28
2022-09-10T03:15:38.277Z,93678.75
2022-09-10T03:16:35.355Z,93707.94
2022-09-10T03:17:32.872Z,93704.88
2022-09-10T03:18:31.745Z,93706.38
2022-09-10T03:19:28.752Z,93696.78
2022-09-10T03:20:25.955Z,93692.63
2022-09-10T03:21:25.245Z,93701.47
2022-09-10T03:22:21.984Z,93701.13
2022-09-10T03:23:19.206Z,93702.66
2022-09-10T03:24:16.033Z,93699.91
2022-09-10T03:25:12.635Z,93699.22
2022-09-10T03:26:10.275Z,93706.19
2022-09-10T03:27:06.918Z,93706.59
2022-09-10T03:28:03.814Z,93698.03
2022-09-10T03:29:00.404Z,93703.03
2022-09-10T03:29:57.054Z,93707.66
2022-09-10T03:30:53.613Z,93703.03
2022-09-10T03:31:51.764Z,93702.72
2022-09-10T03:32:49.216Z,93706.63
2022-09-10T03:33:46.348Z,93698.16
2022-09-10T03:34:44.285Z,93702.38
2022-09-10T03:35:40.832Z,93702.38
2022-09-10T03:36:37.383Z,93693.97
2022-09-10T03:37:34.040Z,93690.88
2022-09-10T03:38:30.941Z,93692.06
2022-09-10T03:39:27.549Z,93690.53
2022-09-10T03:40:24.180Z,93689.75
2022-09-10T03:41:20.791Z,93678.97
2022-09-10T03:42:17.526Z,93670.13
2022-09-10T03:43:14.289Z,93677.03
2022-09-10T03:44:11.556Z,93681.22
2022-09-10T03:45:10.100Z,93678.16
2022-09-10T03:46:07.101Z,93678.94
2022-09-10T03:47:04.985Z,93685.84
2022-09-10T03:48:03.225Z,93673.88
2022-09-10T03:49:02.390Z,93683.88
2022-09-10T03:49:59.795Z,93686.50
2022-09-10T03:50:56.687Z,93691.09
2022-09-10T03:51:53.614Z,93677.97
2022-09-10T03:52:50.197Z,93677.16
2022-09-10T03:53:46.805Z,93692.59
2022-09-10T03:54:45.143Z,93684.06
2022-09-10T03:55:49.086Z,93681.34
2022-09-10T03:56:46.122Z,93674.84
2022-09-10T03:57:43.302Z,93694.81
2022-09-10T03:58:40.083Z,93690.03
2022-09-10T03:59:41.239Z,93689.03
2022-09-10T04:00:37.892Z,93685.94
2022-09-10T04:01:34.587Z,93683.75
2022-09-10T04:02:31.769Z,93682.94
2022-09-10T04:03:29.348Z,93681.44
2022-09-10T04:04:26.063Z,93677.94
2022-09-10T04:05:23.353Z,93683.41
2022-09-10T04:06:19.945Z,93682.28
2022-09-10T04:07:16.509Z,93666.50
2022-09-10T04:08:14.201Z,93681.50
2022-09-10T04:09:11.280Z,93688.50
2022-09-10T04:10:08.244Z,93681.19
2022-09-10T04:11:05.572Z,93683.94
2022-09-10T04:12:03.762Z,93675.47
2022-09-10T04:13:00.308Z,93675.47
2022-09-10T04:13:57.595Z,93670.13
2022-09-10T04:14:54.397Z,93665.47
2022-09-10T04:15:50.983Z,93672.03
2022-09-10T04:16:47.735Z,93665.44
2022-09-10T04:17:46.520Z,93661.91
2022-09-10T04:18:43.162Z,93661.53
2022-09-10T04:19:40.827Z,93660.75
2022-09-10T04:20:38.240Z,93639.59
2022-09-10T04:21:34.902Z,93649.50
2022-09-10T04:22:31.512Z,93650.50
2022-09-10T04:23:29.610Z,93667.38
2022-09-10T04:24:26.244Z,93661.44
2022-09-10T04:25:23.194Z,93665.22
2022-09-10T04:26:20.512Z,93671.00
2022-09-10T04:27:17.483Z,93657.56
2022-09-10T04:28:14.038Z,93677.56
2022-09-10T04:29:10.673Z,93675.22
2022-09-10T04:30:11.169Z,93681.22
2022-09-10T04:31:07.795Z,93690.66
2022-09-10T04:32:04.515Z,93682.63
2022-09-10T04:33:01.098Z,93691.59
2022-09-10T04:34:02.001Z,93691.59
2022-09-10T04:34:59.311Z,93696.59
2022-09-10T04:36:00.501Z,93695.41
2022-09-10T04:36:57.104Z,93698.06
2022-09-10T04:37:53.671Z,93700.66
2022-09-10T04:38:50.274Z,93705.97
2022-09-10T04:39:46.919Z,93686.19
2022-09-10T04:40:44.285Z,93704.94
2022-09-10T04:41:40.852Z,93714.91
2022-09-10T04:42:38.366Z,93702.66
2022-09-10T04:43:36.619Z,93705.41
2022-09-10T04:44:33.892Z,93706.34
2022-09-10T04:45:31.099Z,93704.16
2022-09-10T04:46:27.758Z,93693.78
2022-09-10T04:47:24.366Z,93683.41
2022-09-10T04:48:24.586Z,93691.09
2022-09-10T04:49:21.163Z,93697.66
2022-09-10T04:50:17.714Z,93694.63
2022-09-10T04:51:16.977Z,93683.50
2022-09-10T04:52:14.810Z,93689.69
2022-09-10T04:53:11.391Z,93692.03
2022-09-10T04:54:07.973Z,93688.16
2022-09-10T04:55:04.887Z,93703.16
2022-09-10T04:56:01.751Z,93705.06
2022-09-10T04:56:58.301Z,93699.38
2022-09-10T04:57:54.916Z,93688.22
2022-09-10T04:58:51.857Z,93679.38
2022-09-10T04:59:48.412Z,93684.03
2022-09-10T05:00:45.091Z,93680.53
2022-09-10T05:01:42.188Z,93686.34
2022-09-10T05:02:39.058Z,93695.19
2022-09-10T05:03:36.122Z,93698.25
2022-09-10T05:04:33.287Z,93704.44
2022-09-10T05:05:30.743Z,93705.59
2022-09-10T05:06:27.327Z,93696.34
2022-09-10T05:07:23.935Z,93692.09
2022-09-10T05:08:20.542Z,93705.97
2022-09-10T05:09:17.682Z,93699.78
2022-09-10T05:10:15.378Z,93703.28
2022-09-10T05:11:13.186Z,93699.00
2022-09-10T05:12:10.561Z,93697.84
2022-09-10T05:13:07.998Z,93682.09
2022-09-10T05:14:04.823Z,93695.97
2022-09-10T05:15:03.278Z,93713.66
2022-09-10T05:16:00.164Z,93693.25
2022-09-10T05:16:57.067Z,93705.56
2022-09-10T05:17:53.940Z,93709.78
2022-09-10T05:18:50.633Z,93712.88
2022-09-10T05:19:47.237Z,93711.31
2022-09-10T05:20:47.186Z,93712.84
2022-09-10T05:21:44.777Z,93712.44
2022-09-10T05:22:42.832Z,93708.97
2022-09-10T05:23:39.552Z,93712.03
2022-09-10T05:24:36.167Z,93698.88
2022-09-10T05:25:34.615Z,93715.03
2022-09-10T05:26:31.169Z,93715.44
2022-09-10T05:27:27.726Z,93713.16
2022-09-10T05:28:24.763Z,93711.56
2022-09-10T05:29:22.095Z,93713.84
2022-09-10T05:30:18.991Z,93714.97
2022-09-10T05:31:16.606Z,93708.81
2022-09-10T05:32:13.439Z,93715.38
2022-09-10T05:33:10.049Z,93713.03
2022-09-10T05:34:06.706Z,93717.63
2022-09-10T05:35:05.513Z,93718.03
2022-09-10T05:36:02.704Z,93709.59
2022-09-10T05:36:59.269Z,93716.56
2022-09-10T05:37:57.390Z,93701.91
2022-09-10T05:38:55.156Z,93710.72
2022-09-10T05:39:51.780Z,93711.84
2022-09-10T05:40:48.662Z,93711.47
2022-09-10T05:41:45.261Z,93716.34
2022-09-10T05:42:42.229Z,93709.47
2022-09-10T05:43:39.023Z,93697.53
2022-09-10T05:44:35.717Z,93716.00
2022-09-10T05:45:33.534Z,93708.69
2022-09-10T05:46:30.971Z,93720.22
2022-09-10T05:47:28.282Z,93682.56
2022-09-10T05:48:24.844Z,93718.75
2022-09-10T05:49:21.456Z,93711.47
2022-09-10T05:50:18.132Z,93704.97
2022-09-10T05:51:14.831Z,93704.97
2022-09-10T05:52:11.440Z,93693.44
2022-09-10T05:53:09.617Z,93709.22
2022-09-10T05:54:06.315Z,93702.69
2022-09-10T05:55:03.829Z,93710.34
2022-09-10T05:56:00.854Z,93711.06
2022-09-10T05:56:58.722Z,93709.81
2022-09-10T05:57:56.666Z,93707.50
2022-09-10T05:58:53.609Z,93710.25
2022-09-10T05:59:50.463Z,93692.47
2022-09-10T06:00:53.588Z,93702.78
2022-09-10T06:01:52.140Z,93702.50
2022-09-10T06:02:48.902Z,93701.66
2022-09-10T06:03:45.684Z,93696.44
2022-09-10T06:04:42.279Z,93690.78
2022-09-10T06:05:38.888Z,93703.50
2022-09-10T06:06:35.483Z,93698.69
2022-09-10T06:07:32.134Z,93704.66
2022-09-10T06:08:28.932Z,93705.03
2022-09-10T06:09:25.608Z,93708.69
2022-09-10T06:10:22.257Z,93697.41
2022-09-10T06:11:18.933Z,93711.28
2022-09-10T06:12:17.237Z,93707.50
2022-09-10T06:13:14.015Z,93703.47
2022-09-10T06:14:10.635Z,93706.66
2022-09-10T06:15:07.609Z,93703.44
2022-09-10T06:16:05.209Z,93705.69
2022-09-10T06:17:01.984Z,93693.75
2022-09-10T06:17:58.685Z,93691.69
2022-09-10T06:18:55.360Z,93685.72
2022-09-10T06:19:51.967Z,93701.94
2022-09-10T06:20:49.120Z,93697.28
2022-09-10T06:21:46.909Z,93695.06
2022-09-10T06:22:43.507Z,93689.47
2022-09-10T06:23:40.349Z,93693.81
2022-09-10T06:24:37.757Z,93686.91
2022-09-10T06:25:34.428Z,93687.94
2022-09-10T06:26:31.078Z,93674.88
2022-09-10T06:27:27.655Z,93692.13
2022-09-10T06:28:24.840Z,93689.41
2022-09-10T06:29:22.650Z,93697.34
2022-09-10T06:30:20.773Z,93690.97
2022-09-10T06:31:18.108Z,93693.72
2022-09-10T06:32:14.985Z,93693.88
2022-09-10T06:33:13.791Z,93691.28
2022-09-10T06:34:11.528Z,93684.09
2022-09-10T06:35:09.849Z,93688.44
2022-09-10T06:36:06.534Z,93692.25
2022-09-10T06:37:04.214Z,93697.63
2022-09-10T06:38:01.046Z,93691.25
2022-09-10T06:38:58.067Z,93692.13
2022-09-10T06:39:54.720Z,93697.84
2022-09-10T06:40:56.038Z,93691.56
2022-09-10T06:41:53.698Z,93691.31
2022-09-10T06:42:50.740Z,93690.47
2022-09-10T06:43:47.391Z,93684.50
2022-09-10T06:44:44.340Z,93687.53
2022-09-10T06:45:41.033Z,93678.03
2022-09-10T06:49:11.849Z,93689.22
2022-09-10T06:50:09.033Z,93665.53
2022-09-10T06:51:08.194Z,93687.84
2022-09-10T06:52:04.896Z,93683.25
2022-09-10T06:53:01.965Z,93682.22
2022-09-10T06:53:58.619Z,93692.53
2022-09-10T06:54:55.435Z,93688.94
2022-09-10T06:55:53.197Z,93687.41
2022-09-10T06:56:49.885Z,93690.00
2022-09-10T06:57:47.116Z,93677.38
2022-09-10T06:58:43.767Z,93692.66
2022-09-10T06:59:41.352Z,93692.94
2022-09-10T07:00:39.348Z,93686.63
2022-09-10T07:01:36.235Z,93695.63
2022-09-10T07:02:32.850Z,93692.09
2022-09-10T07:03:29.670Z,93697.69
2022-09-10T07:04:26.315Z,93694.84
2022-09-10T07:05:22.895Z,93701.44
2022-09-10T07:06:19.528Z,93699.69
2022-09-10T07:07:16.137Z,93702.50
2022-09-10T07:08:15.952Z,93700.06
2022-09-10T07:09:12.559Z,93698.09
2022-09-10T07:10:09.542Z,93700.38
2022-09-10T07:11:11.375Z,93712.88
2022-09-10T07:12:09.478Z,93713.72
2022-09-10T07:13:06.925Z,93712.47
2022-09-10T07:14:03.772Z,93710.00
2022-09-10T07:15:00.388Z,93714.97
2022-09-10T07:15:57.648Z,93713.59
2022-09-10T07:16:55.633Z,93716.66
2022-09-10T07:17:52.276Z,93719.09
2022-09-10T07:18:54.669Z,93722.44
2022-09-10T07:19:51.127Z,93721.53
2022-09-10T07:20:47.749Z,93724.63
2022-09-10T07:21:44.901Z,93716.78
2022-09-10T07:22:43.844Z,93696.88
2022-09-10T07:23:41.047Z,93721.44
2022-09-10T07:24:37.887Z,93715.44
2022-09-10T07:25:34.464Z,93719.28
2022-09-10T07:26:31.411Z,93683.94
2022-09-10T07:27:27.977Z,93703.56
2022-09-10T07:28:24.557Z,93713.88
2022-09-10T07:29:21.127Z,93710.38
2022-09-10T07:30:18.897Z,93705.59
2022-09-10T07:31:29.806Z,93714.31
2022-09-10T07:32:26.374Z,93713.56
2022-09-10T07:33:23.018Z,93702.38
2022-09-10T07:34:20.318Z,93718.69
2022-09-10T07:35:17.186Z,93718.06
2022-09-10T07:36:14.975Z,93718.75
2022-09-10T07:37:12.038Z,93722.94
2022-09-10T07:38:14.153Z,93729.75
2022-09-10T07:39:10.903Z,93726.69
2022-09-10T07:40:10.759Z,93727.94
2022-09-10T07:41:11.289Z,93726.34
2022-09-10T07:42:07.977Z,93719.03
2022-09-10T07:43:04.658Z,93718.81
2022-09-10T07:44:01.289Z,93706.34
2022-09-10T07:44:58.164Z,93717.22
2022-09-10T07:45:54.842Z,93720.72
2022-09-10T07:46:52.890Z,93718.34
2022-09-10T07:47:49.979Z,93718.72
2022-09-10T07:48:54.472Z,93723.91
2022-09-10T07:49:52.696Z,93718.16
2022-09-10T07:50:49.397Z,93731.44
2022-09-10T07:51:46.020Z,93728.03
2022-09-10T07:52:42.837Z,93727.53
2022-09-10T07:53:47.515Z,93729.22
2022-09-10T07:54:47.013Z,93722.34
2022-09-10T07:55:43.620Z,93728.78
2022-09-10T07:56:40.177Z,93711.16
2022-09-10T07:57:40.652Z,93721.34
2022-09-10T07:58:38.416Z,93729.16
2022-09-10T07:59:35.057Z,93725.09
2022-09-10T08:00:31.901Z,93726.78
2022-09-10T08:01:28.533Z,93720.81
2022-09-10T08:02:25.856Z,93720.16
2022-09-10T08:03:22.594Z,93715.25
2022-09-10T08:04:19.184Z,93718.59
2022-09-10T08:05:16.950Z,93714.28
2022-09-10T08:06:14.569Z,93714.78
2022-09-10T08:07:11.152Z,93714.28
2022-09-10T08:08:07.776Z,93715.97
2022-09-10T08:09:07.623Z,93719.97
2022-09-10T08:10:09.732Z,93716.22
2022-09-10T08:11:17.830Z,93721.25
2022-09-10T08:12:14.889Z,93724.16
2022-09-10T08:13:12.728Z,93721.72
2022-09-10T08:14:09.579Z,93715.16
2022-09-10T08:15:07.796Z,93725.53
2022-09-10T08:16:12.517Z,93723.84
2022-09-10T08:17:09.190Z,93726.59
2022-09-10T08:18:05.865Z,93728.81
2022-09-10T08:19:02.730Z,93732.03
2022-09-10T08:19:59.419Z,93720.13
2022-09-10T08:20:56.042Z,93715.75
2022-09-10T08:21:52.718Z,93723.19
2022-09-10T08:22:49.653Z,93716.50
2022-09-10T08:23:56.288Z,93691.28
2022-09-10T08:24:53.355Z,93718.13
2022-09-10T08:25:53.653Z,93714.41
2022-09-10T08:26:50.360Z,93723.88
2022-09-10T08:27:47.116Z,93722.53
2022-09-10T08:28:44.298Z,93705.63
2022-09-10T08:29:40.892Z,93717.56
2022-09-10T08:30:37.430Z,93717.50
2022-09-10T08:31:34.723Z,93711.63
2022-09-10T08:32:31.337Z,93716.28
2022-09-10T08:33:29.579Z,93713.00
2022-09-10T08:34:26.422Z,93708.63
2022-09-10T08:35:23.030Z,93709.94
2022-09-10T08:36:21.895Z,93711.34
2022-09-10T08:37:19.123Z,93712.13
2022-09-10T08:38:16.299Z,93703.38
2022-09-10T08:39:13.350Z,93696.16
2022-09-10T08:40:13.355Z,93708.28
2022-09-10T08:41:21.921Z,93707.53
2022-09-10T08:42:24.668Z,93700.88
2022-09-10T08:43:29.226Z,93693.59
2022-09-10T08:44:31.279Z,93698.84
2022-09-10T08:45:32.775Z,93702.06
2022-09-10T08:46:35.759Z,93685.69
2022-09-10T08:47:46.585Z,93696.66
2022-09-10T08:48:46.322Z,93678.78
2022-09-10T08:49:51.094Z,93685.97
2022-09-10T08:50:56.632Z,93687.72
2022-09-10T08:52:00.838Z,93687.72
2022-09-10T08:53:05.449Z,93688.09
2022-09-10T08:54:10.250Z,93686.44
2022-09-10T08:55:13.323Z,93686.66
2022-09-10T08:56:15.348Z,93683.22
2022-09-10T08:57:28.134Z,93682.47
2022-09-10T08:58:30.910Z,93689.38
2022-09-10T08:59:33.558Z,93681.09
2022-09-10T09:00:37.822Z,93678.56
2022-09-10T09:01:48.201Z,93679.31
2022-09-10T09:03:20.341Z,93679.66
2022-09-10T09:04:29.784Z,93677.34
2022-09-10T09:05:28.199Z,93687.03
2022-09-10T09:06:37.653Z,93690.41
2022-09-10T09:07:40.332Z,93683.78
2022-09-10T09:08:48.242Z,93685.56
2022-09-10T09:09:45.567Z,93682.88
2022-09-10T09:10:46.887Z,93691.34
2022-09-10T09:11:57.560Z,93691.53
2022-09-10T09:13:22.383Z,93690.66
2022-09-10T09:14:28.496Z,93689.81
2022-09-10T09:15:41.700Z,93687.88
2022-09-10T09:16:50.273Z,93682.56
2022-09-10T09:18:28.153Z,93675.78
2022-09-10T09:19:45.424Z,93677.97
2022-09-10T09:20:50.005Z,93666.56
2022-09-10T09:22:01.564Z,93672.78
2022-09-10T09:23:17.473Z,93674.75
2022-09-10T09:24:46.123Z,93660.38
2022-09-10T09:25:51.646Z,93667.63
2022-09-10T09:26:49.792Z,93664.22
2022-09-10T09:27:47.630Z,93659.00
2022-09-10T09:28:54.731Z,93657.25
2022-09-10T09:30:02.562Z,93657.31
2022-09-10T09:31:09.325Z,93653.53
2022-09-10T09:32:07.184Z,93652.72
2022-09-10T09:33:13.649Z,93652.75
2022-09-10T09:34:19.515Z,93640.25
2022-09-10T09:35:29.062Z,93645.06
2022-09-10T09:36:34.384Z,93646.53
2022-09-10T09:37:31.341Z,93634.03
2022-09-10T09:38:31.496Z,93640.59
2022-09-10T09:39:36.443Z,93637.78
2022-09-10T09:41:06.692Z,93638.03
2022-09-10T09:42:24.705Z,93631.38
2022-09-10T09:43:49.806Z,93622.22
2022-09-10T09:44:59.254Z,93630.00
2022-09-10T09:45:55.982Z,93628.38
2022-09-10T09:46:52.630Z,93609.50
2022-09-10T09:47:54.368Z,93622.84
2022-09-10T09:48:55.789Z,93627.56
2022-09-10T09:49:54.016Z,93626.50
2022-09-10T09:50:55.725Z,93616.75
2022-09-10T09:51:53.364Z,93616.28
2022-09-10T09:52:54.939Z,93611.41
2022-09-10T09:54:25.849Z,93612.94
2022-09-10T09:55:41.474Z,93619.28
2022-09-10T09:56:42.974Z,93610.56
2022-09-10T09:57:40.159Z,93611.13
2022-09-10T09:59:35.208Z,93604.28
2022-09-10T10:00:37.842Z,93609.91
2022-09-10T10:01:42.087Z,93608.19
2022-09-10T10:02:38.780Z,93598.00
2022-09-10T10:03:48.402Z,93601.59
2022-09-10T10:05:09.670Z,93593.72
2022-09-10T10:06:11.477Z,93597.84
2022-09-10T10:07:08.171Z,93590.88
2022-09-10T10:08:04.772Z,93588.53
2022-09-10T10:09:06.974Z,93594.81
2022-09-10T10:10:07.982Z,93588.28
2022-09-10T10:11:05.055Z,93590.16
2022-09-10T10:12:06.381Z,93594.91
2022-09-10T10:13:03.622Z,93586.88
2022-09-10T10:14:12.633Z,93596.78
2022-09-10T10:15:35.536Z,93591.16
2022-09-10T10:16:35.912Z,93590.53
2022-09-10T10:17:41.291Z,93588.66
2022-09-10T10:18:37.984Z,93581.63
2022-09-10T10:19:40.317Z,93580.66
2022-09-10T10:20:39.000Z,93576.09
2022-09-10T10:21:36.909Z,93579.28
2022-09-10T10:22:33.708Z,93575.13
2022-09-10T10:23:38.190Z,93564.16
2022-09-10T10:24:35.055Z,93570.44
2022-09-10T10:25:38.533Z,93570.78
2022-09-10T10:26:36.295Z,93576.22
2022-09-10T10:27:36.806Z,93574.66
2022-09-10T10:28:36.197Z,93582.66
2022-09-10T10:29:32.895Z,93577.00
2022-09-10T10:30:32.171Z,93580.41
2022-09-10T10:31:41.807Z,93570.91
2022-09-10T10:32:46.550Z,93566.81
2022-09-10T10:34:15.358Z,93580.34
2022-09-10T10:35:19.485Z,93563.41
2022-09-10T10:36:25.519Z,93557.34
2022-09-10T10:37:50.571Z,93555.00
2022-09-10T10:39:02.995Z,93549.00
2022-09-10T10:40:30.474Z,93547.88
2022-09-10T10:41:39.824Z,93551.75
2022-09-10T10:42:46.826Z,93541.72
2022-09-10T10:43:58.206Z,93558.31
2022-09-10T10:45:16.560Z,93546.88
2022-09-10T10:46:20.287Z,93547.75
2022-09-10T10:47:39.680Z,93547.75
2022-09-10T10:48:51.260Z,93550.66
2022-09-10T10:50:03.608Z,93542.44
2022-09-10T10:51:18.221Z,93548.34
2022-09-10T10:52:34.551Z,93552.94
2022-09-10T10:53:56.767Z,93551.06
2022-09-10T10:55:17.402Z,93554.72
2022-09-10T10:56:29.870Z,93540.03
2022-09-10T10:57:48.025Z,93529.50
2022-09-10T10:58:54.518Z,93535.66
2022-09-10T11:00:01.216Z,93534.25
2022-09-10T11:01:18.125Z,93539.16
2022-09-10T11:02:33.504Z,93534.88
2022-09-10T11:03:40.145Z,93530.06
2022-09-10T11:04:54.810Z,93540.66
2022-09-10T11:06:08.500Z,93548.53
2022-09-10T11:07:14.145Z,93555.41
2022-09-10T11:08:19.509Z,93561.06
2022-09-10T11:09:43.280Z,93565.22
2022-09-10T11:10:43.476Z,93577.88
2022-09-10T11:12:01.263Z,93582.66
2022-09-10T11:13:13.691Z,93600.63
2022-09-10T11:14:39.112Z,93625.91
2022-09-10T11:15:44.155Z,93623.47
2022-09-10T11:16:57.958Z,93638.81
2022-09-10T11:18:13.090Z,93643.09
2022-09-10T11:19:19.757Z,93625.22
2022-09-10T11:20:34.414Z,93621.56
2022-09-10T11:22:01.740Z,93621.44
2022-09-10T11:23:07.314Z,93605.94
2022-09-10T11:24:18.914Z,93607.00
2022-09-10T11:25:22.115Z,93624.41
2022-09-10T11:26:24.843Z,93591.38
2022-09-10T11:27:31.384Z,93602.19
2022-09-10T11:28:37.628Z,93630.34
2022-09-10T11:29:42.528Z,93620.69
2022-09-10T11:30:45.306Z,93614.63
2022-09-10T11:32:06.445Z,93617.00
2022-09-10T11:33:17.226Z,93612.91
2022-09-10T11:34:19.840Z,93617.53
2022-09-10T11:35:29.325Z,93620.13
2022-09-10T11:36:38.840Z,93617.59
2022-09-10T11:38:14.286Z,93613.59
2022-09-10T11:39:29.240Z,93622.84
2022-09-10T11:40:43.667Z,93622.09
2022-09-10T11:41:42.666Z,93626.22
2022-09-10T11:42:46.796Z,93619.28
2022-09-10T11:44:02.168Z,93616.88
2022-09-10T11:45:20.531Z,93610.97
2022-09-10T11:46:24.050Z,93604.03
2022-09-10T11:47:45.970Z,93594.00
2022-09-10T11:48:49.512Z,93587.81
2022-09-10T11:50:01.007Z,93587.44
2022-09-10T11:51:02.333Z,93580.38
2022-09-10T11:51:58.952Z,93570.25
2022-09-10T11:52:59.163Z,93583.72
2022-09-10T11:53:56.564Z,93559.78
2022-09-10T11:54:54.142Z,93573.13
2022-09-10T11:56:08.995Z,93571.75
2022-09-10T11:57:31.214Z,93566.84
2022-09-10T11:58:49.489Z,93566.16
2022-09-10T11:59:58.318Z,93571.88
2022-09-10T12:01:32.643Z,93563.94
2022-09-10T12:02:29.177Z,93567.34
2022-09-10T12:04:01.450Z,93558.13